sensor_id;sensor_type;location;lat;lon;timestamp;P1;durP1;ratioP1;P2;durP2;ratioP2
11255;SDS011;5685;52.384;13.420;2022-11-20T00:02:01;19.67;;;18.43;;
11255;SDS011;5685;52.384;13.420;2022-11-20T00:05:04;19.73;;;18.53;;
11255;SDS011;5685;52.384;13.420;2022-11-20T00:08:07;20.47;;;19.13;;
11255;SDS011;5685;52.384;13.420;2022-11-20T00:11:11;20.10;;;18.90;;
11255;SDS011;5685;52.384;13.420;2022-11-20T00:14:14;19.87;;;18.67;;
11255;SDS011;5685;52.384;13.420;2022-11-20T00:17:18;19.43;;;18.23;;
11255;SDS011;5685;52.384;13.420;2022-11-20T00:20:21;20.13;;;18.93;;
11255;SDS011;5685;52.384;13.420;2022-11-20T00:23:24;20.63;;;19.43;;
11255;SDS011;5685;52.384;13.420;2022-11-20T00:26:27;19.83;;;18.50;;
11255;SDS011;5685;52.384;13.420;2022-11-20T00:29:30;19.77;;;18.57;;
11255;SDS011;5685;52.384;13.420;2022-11-20T00:32:34;19.27;;;18.07;;
11255;SDS011;5685;52.384;13.420;2022-11-20T00:35:37;19.63;;;18.43;;
11255;SDS011;5685;52.384;13.420;2022-11-20T00:38:39;19.97;;;18.60;;
11255;SDS011;5685;52.384;13.420;2022-11-20T00:41:42;19.03;;;17.93;;
11255;SDS011;5685;52.384;13.420;2022-11-20T00:44:45;20.30;;;19.00;;
11255;SDS011;5685;52.384;13.420;2022-11-20T00:47:49;19.47;;;18.30;;
11255;SDS011;5685;52.384;13.420;2022-11-20T00:50:52;20.10;;;18.80;;
11255;SDS011;5685;52.384;13.420;2022-11-20T00:53:55;19.90;;;18.67;;
11255;SDS011;5685;52.384;13.420;2022-11-20T00:56:59;20.10;;;18.87;;
11255;SDS011;5685;52.384;13.420;2022-11-20T01:00:02;19.33;;;18.23;;
11255;SDS011;5685;52.384;13.420;2022-11-20T01:03:07;19.43;;;18.23;;
11255;SDS011;5685;52.384;13.420;2022-11-20T01:06:11;19.33;;;18.23;;
11255;SDS011;5685;52.384;13.420;2022-11-20T01:09:15;20.40;;;19.20;;
11255;SDS011;5685;52.384;13.420;2022-11-20T01:12:17;19.70;;;18.50;;
11255;SDS011;5685;52.384;13.420;2022-11-20T01:15:20;19.80;;;18.60;;
11255;SDS011;5685;52.384;13.420;2022-11-20T01:18:24;19.60;;;18.40;;
11255;SDS011;5685;52.384;13.420;2022-11-20T01:21:27;19.97;;;18.80;;
11255;SDS011;5685;52.384;13.420;2022-11-20T01:24:31;19.53;;;18.43;;
11255;SDS011;5685;52.384;13.420;2022-11-20T01:27:34;19.80;;;18.60;;
11255;SDS011;5685;52.384;13.420;2022-11-20T01:30:37;19.47;;;18.37;;
11255;SDS011;5685;52.384;13.420;2022-11-20T01:33:41;19.77;;;18.57;;
11255;SDS011;5685;52.384;13.420;2022-11-20T01:36:44;19.33;;;18.23;;
11255;SDS011;5685;52.384;13.420;2022-11-20T01:39:47;19.20;;;18.10;;
11255;SDS011;5685;52.384;13.420;2022-11-20T01:42:51;19.50;;;18.40;;
11255;SDS011;5685;52.384;13.420;2022-11-20T01:46:20;19.60;;;18.47;;
11255;SDS011;5685;52.384;13.420;2022-11-20T01:49:27;19.93;;;18.73;;
11255;SDS011;5685;52.384;13.420;2022-11-20T01:52:34;19.93;;;18.73;;
11255;SDS011;5685;52.384;13.420;2022-11-20T01:55:39;20.33;;;19.13;;
11255;SDS011;5685;52.384;13.420;2022-11-20T01:58:46;20.20;;;18.90;;
11255;SDS011;5685;52.384;13.420;2022-11-20T02:01:52;19.67;;;18.57;;
11255;SDS011;5685;52.384;13.420;2022-11-20T02:04:56;19.83;;;18.63;;
11255;SDS011;5685;52.384;13.420;2022-11-20T02:08:05;20.07;;;18.87;;
11255;SDS011;5685;52.384;13.420;2022-11-20T02:11:08;19.17;;;18.07;;
11255;SDS011;5685;52.384;13.420;2022-11-20T02:14:12;19.60;;;18.40;;
11255;SDS011;5685;52.384;13.420;2022-11-20T02:17:15;20.00;;;18.80;;
11255;SDS011;5685;52.384;13.420;2022-11-20T02:20:19;20.57;;;19.27;;
11255;SDS011;5685;52.384;13.420;2022-11-20T02:23:23;19.73;;;18.50;;
11255;SDS011;5685;52.384;13.420;2022-11-20T02:26:31;20.07;;;18.87;;
11255;SDS011;5685;52.384;13.420;2022-11-20T02:29:36;19.10;;;18.00;;
11255;SDS011;5685;52.384;13.420;2022-11-20T02:32:42;19.23;;;18.03;;
11255;SDS011;5685;52.384;13.420;2022-11-20T02:35:45;20.00;;;18.83;;
11255;SDS011;5685;52.384;13.420;2022-11-20T02:38:48;19.67;;;18.57;;
11255;SDS011;5685;52.384;13.420;2022-11-20T02:41:53;19.47;;;18.37;;
11255;SDS011;5685;52.384;13.420;2022-11-20T02:44:56;19.97;;;18.77;;
11255;SDS011;5685;52.384;13.420;2022-11-20T02:47:59;19.40;;;18.27;;
11255;SDS011;5685;52.384;13.420;2022-11-20T02:51:02;19.60;;;18.50;;
11255;SDS011;5685;52.384;13.420;2022-11-20T02:54:05;19.93;;;18.73;;
11255;SDS011;5685;52.384;13.420;2022-11-20T02:57:09;19.83;;;18.70;;
11255;SDS011;5685;52.384;13.420;2022-11-20T03:00:12;19.23;;;18.07;;
11255;SDS011;5685;52.384;13.420;2022-11-20T03:03:15;19.60;;;18.50;;
11255;SDS011;5685;52.384;13.420;2022-11-20T03:06:18;19.90;;;18.67;;
11255;SDS011;5685;52.384;13.420;2022-11-20T03:09:20;20.03;;;18.87;;
11255;SDS011;5685;52.384;13.420;2022-11-20T03:12:24;19.87;;;18.67;;
11255;SDS011;5685;52.384;13.420;2022-11-20T03:15:27;19.97;;;18.77;;
11255;SDS011;5685;52.384;13.420;2022-11-20T03:18:30;19.80;;;18.60;;
11255;SDS011;5685;52.384;13.420;2022-11-20T03:21:33;19.87;;;18.67;;
11255;SDS011;5685;52.384;13.420;2022-11-20T03:24:35;20.87;;;19.53;;
11255;SDS011;5685;52.384;13.420;2022-11-20T03:27:40;19.97;;;18.77;;
11255;SDS011;5685;52.384;13.420;2022-11-20T03:30:42;19.83;;;18.63;;
11255;SDS011;5685;52.384;13.420;2022-11-20T03:33:45;19.30;;;18.20;;
11255;SDS011;5685;52.384;13.420;2022-11-20T03:36:48;20.00;;;18.77;;
11255;SDS011;5685;52.384;13.420;2022-11-20T03:39:50;20.10;;;18.80;;
11255;SDS011;5685;52.384;13.420;2022-11-20T03:42:54;19.87;;;18.77;;
11255;SDS011;5685;52.384;13.420;2022-11-20T03:45:57;20.60;;;19.30;;
11255;SDS011;5685;52.384;13.420;2022-11-20T03:49:00;20.30;;;19.00;;
11255;SDS011;5685;52.384;13.420;2022-11-20T03:52:03;19.63;;;18.43;;
11255;SDS011;5685;52.384;13.420;2022-11-20T03:55:06;19.37;;;18.27;;
11255;SDS011;5685;52.384;13.420;2022-11-20T03:58:11;19.97;;;18.77;;
11255;SDS011;5685;52.384;13.420;2022-11-20T04:01:15;19.63;;;18.53;;
11255;SDS011;5685;52.384;13.420;2022-11-20T04:04:19;20.47;;;19.17;;
11255;SDS011;5685;52.384;13.420;2022-11-20T04:07:22;19.80;;;18.70;;
11255;SDS011;5685;52.384;13.420;2022-11-20T04:10:25;19.57;;;18.47;;
11255;SDS011;5685;52.384;13.420;2022-11-20T04:13:29;20.40;;;19.07;;
11255;SDS011;5685;52.384;13.420;2022-11-20T04:16:33;20.50;;;19.20;;
11255;SDS011;5685;52.384;13.420;2022-11-20T04:19:36;20.67;;;19.47;;
11255;SDS011;5685;52.384;13.420;2022-11-20T04:22:39;20.10;;;18.90;;
11255;SDS011;5685;52.384;13.420;2022-11-20T04:25:42;21.20;;;19.80;;
11255;SDS011;5685;52.384;13.420;2022-11-20T04:28:46;20.70;;;19.37;;
11255;SDS011;5685;52.384;13.420;2022-11-20T04:31:48;20.20;;;19.00;;
11255;SDS011;5685;52.384;13.420;2022-11-20T04:34:51;20.23;;;18.93;;
11255;SDS011;5685;52.384;13.420;2022-11-20T04:37:54;20.47;;;19.23;;
11255;SDS011;5685;52.384;13.420;2022-11-20T04:40:57;20.47;;;19.10;;
11255;SDS011;5685;52.384;13.420;2022-11-20T04:44:02;19.80;;;18.60;;
11255;SDS011;5685;52.384;13.420;2022-11-20T04:47:06;19.77;;;18.57;;
11255;SDS011;5685;52.384;13.420;2022-11-20T04:50:09;20.77;;;19.57;;
11255;SDS011;5685;52.384;13.420;2022-11-20T04:53:11;19.93;;;18.67;;
11255;SDS011;5685;52.384;13.420;2022-11-20T04:56:14;20.37;;;19.07;;
11255;SDS011;5685;52.384;13.420;2022-11-20T04:59:19;20.43;;;19.13;;
11255;SDS011;5685;52.384;13.420;2022-11-20T05:02:21;21.07;;;19.67;;
11255;SDS011;5685;52.384;13.420;2022-11-20T05:05:24;20.97;;;19.60;;
11255;SDS011;5685;52.384;13.420;2022-11-20T05:08:27;20.70;;;19.40;;
11255;SDS011;5685;52.384;13.420;2022-11-20T05:11:31;20.03;;;18.83;;
11255;SDS011;5685;52.384;13.420;2022-11-20T05:14:35;20.70;;;19.50;;
11255;SDS011;5685;52.384;13.420;2022-11-20T05:17:38;20.00;;;18.90;;
11255;SDS011;5685;52.384;13.420;2022-11-20T05:20:40;20.60;;;19.37;;
11255;SDS011;5685;52.384;13.420;2022-11-20T05:23:43;21.10;;;19.80;;
11255;SDS011;5685;52.384;13.420;2022-11-20T05:26:45;20.10;;;18.97;;
11255;SDS011;5685;52.384;13.420;2022-11-20T05:29:50;20.10;;;18.90;;
11255;SDS011;5685;52.384;13.420;2022-11-20T05:32:52;20.17;;;18.97;;
11255;SDS011;5685;52.384;13.420;2022-11-20T05:35:57;20.30;;;19.10;;
11255;SDS011;5685;52.384;13.420;2022-11-20T05:39:00;20.30;;;18.77;;
11255;SDS011;5685;52.384;13.420;2022-11-20T05:42:03;21.13;;;19.90;;
11255;SDS011;5685;52.384;13.420;2022-11-20T05:45:24;20.10;;;18.90;;
11255;SDS011;5685;52.384;13.420;2022-11-20T05:48:27;19.97;;;18.73;;
11255;SDS011;5685;52.384;13.420;2022-11-20T05:51:29;20.43;;;19.13;;
11255;SDS011;5685;52.384;13.420;2022-11-20T05:54:32;19.90;;;18.73;;
11255;SDS011;5685;52.384;13.420;2022-11-20T05:57:35;19.93;;;18.73;;
11255;SDS011;5685;52.384;13.420;2022-11-20T06:00:39;19.97;;;18.67;;
11255;SDS011;5685;52.384;13.420;2022-11-20T06:03:42;20.00;;;18.77;;
11255;SDS011;5685;52.384;13.420;2022-11-20T06:06:46;20.80;;;19.50;;
11255;SDS011;5685;52.384;13.420;2022-11-20T06:09:48;21.07;;;19.67;;
11255;SDS011;5685;52.384;13.420;2022-11-20T06:12:51;19.77;;;18.53;;
11255;SDS011;5685;52.384;13.420;2022-11-20T06:15:55;19.93;;;18.60;;
11255;SDS011;5685;52.384;13.420;2022-11-20T06:18:58;20.27;;;19.07;;
11255;SDS011;5685;52.384;13.420;2022-11-20T06:22:00;20.90;;;19.53;;
11255;SDS011;5685;52.384;13.420;2022-11-20T06:25:03;21.00;;;19.70;;
11255;SDS011;5685;52.384;13.420;2022-11-20T06:28:06;20.20;;;18.90;;
11255;SDS011;5685;52.384;13.420;2022-11-20T06:31:11;20.73;;;19.43;;
11255;SDS011;5685;52.384;13.420;2022-11-20T06:34:15;20.03;;;18.83;;
11255;SDS011;5685;52.384;13.420;2022-11-20T06:37:18;20.10;;;18.77;;
11255;SDS011;5685;52.384;13.420;2022-11-20T06:40:21;20.47;;;19.17;;
11255;SDS011;5685;52.384;13.420;2022-11-20T06:43:24;20.57;;;19.27;;
11255;SDS011;5685;52.384;13.420;2022-11-20T06:46:28;21.73;;;20.33;;
11255;SDS011;5685;52.384;13.420;2022-11-20T06:49:30;20.30;;;19.00;;
11255;SDS011;5685;52.384;13.420;2022-11-20T06:52:34;20.53;;;19.23;;
11255;SDS011;5685;52.384;13.420;2022-11-20T06:55:37;20.77;;;19.50;;
11255;SDS011;5685;52.384;13.420;2022-11-20T06:58:44;20.17;;;18.90;;
11255;SDS011;5685;52.384;13.420;2022-11-20T07:01:48;20.33;;;19.13;;
11255;SDS011;5685;52.384;13.420;2022-11-20T07:04:50;20.53;;;19.23;;
11255;SDS011;5685;52.384;13.420;2022-11-20T07:07:55;20.47;;;19.27;;
11255;SDS011;5685;52.384;13.420;2022-11-20T07:10:58;20.47;;;19.17;;
11255;SDS011;5685;52.384;13.420;2022-11-20T07:14:01;20.30;;;19.00;;
11255;SDS011;5685;52.384;13.420;2022-11-20T07:17:05;19.93;;;18.73;;
11255;SDS011;5685;52.384;13.420;2022-11-20T07:20:08;20.20;;;18.90;;
11255;SDS011;5685;52.384;13.420;2022-11-20T07:23:12;20.67;;;19.37;;
11255;SDS011;5685;52.384;13.420;2022-11-20T07:26:14;21.07;;;19.57;;
11255;SDS011;5685;52.384;13.420;2022-11-20T07:29:17;20.53;;;19.23;;
11255;SDS011;5685;52.384;13.420;2022-11-20T07:32:21;20.87;;;19.47;;
11255;SDS011;5685;52.384;13.420;2022-11-20T07:35:24;20.97;;;19.47;;
11255;SDS011;5685;52.384;13.420;2022-11-20T07:38:27;21.13;;;19.83;;
11255;SDS011;5685;52.384;13.420;2022-11-20T07:41:30;20.90;;;19.60;;
11255;SDS011;5685;52.384;13.420;2022-11-20T07:44:32;21.43;;;20.03;;
11255;SDS011;5685;52.384;13.420;2022-11-20T07:47:37;20.93;;;19.63;;
11255;SDS011;5685;52.384;13.420;2022-11-20T07:50:40;20.77;;;19.37;;
11255;SDS011;5685;52.384;13.420;2022-11-20T07:53:42;20.83;;;19.40;;
11255;SDS011;5685;52.384;13.420;2022-11-20T07:56:45;21.40;;;19.93;;
11255;SDS011;5685;52.384;13.420;2022-11-20T07:59:48;21.83;;;20.43;;
11255;SDS011;5685;52.384;13.420;2022-11-20T08:02:52;21.70;;;20.10;;
11255;SDS011;5685;52.384;13.420;2022-11-20T08:05:58;21.07;;;19.77;;
11255;SDS011;5685;52.384;13.420;2022-11-20T08:09:00;21.60;;;20.20;;
11255;SDS011;5685;52.384;13.420;2022-11-20T08:12:03;21.70;;;20.20;;
11255;SDS011;5685;52.384;13.420;2022-11-20T08:15:24;21.57;;;20.13;;
11255;SDS011;5685;52.384;13.420;2022-11-20T08:18:28;21.17;;;19.80;;
11255;SDS011;5685;52.384;13.420;2022-11-20T08:21:31;21.73;;;20.23;;
11255;SDS011;5685;52.384;13.420;2022-11-20T08:24:34;21.53;;;20.03;;
11255;SDS011;5685;52.384;13.420;2022-11-20T08:27:36;20.23;;;19.03;;
11255;SDS011;5685;52.384;13.420;2022-11-20T08:30:39;20.80;;;19.50;;
11255;SDS011;5685;52.384;13.420;2022-11-20T08:33:43;21.23;;;19.83;;
11255;SDS011;5685;52.384;13.420;2022-11-20T08:36:46;21.13;;;19.73;;
11255;SDS011;5685;52.384;13.420;2022-11-20T08:39:49;20.93;;;19.53;;
11255;SDS011;5685;52.384;13.420;2022-11-20T08:42:53;21.80;;;20.30;;
11255;SDS011;5685;52.384;13.420;2022-11-20T08:45:56;21.10;;;19.80;;
11255;SDS011;5685;52.384;13.420;2022-11-20T08:49:00;20.80;;;19.47;;
11255;SDS011;5685;52.384;13.420;2022-11-20T08:52:03;21.87;;;20.47;;
11255;SDS011;5685;52.384;13.420;2022-11-20T08:55:06;21.90;;;20.50;;
11255;SDS011;5685;52.384;13.420;2022-11-20T08:58:09;21.83;;;20.43;;
11255;SDS011;5685;52.384;13.420;2022-11-20T09:01:12;21.93;;;20.47;;
11255;SDS011;5685;52.384;13.420;2022-11-20T09:04:16;21.53;;;20.03;;
11255;SDS011;5685;52.384;13.420;2022-11-20T09:07:19;21.37;;;19.87;;
11255;SDS011;5685;52.384;13.420;2022-11-20T09:10:21;20.40;;;19.10;;
11255;SDS011;5685;52.384;13.420;2022-11-20T09:13:25;21.07;;;19.33;;
11255;SDS011;5685;52.384;13.420;2022-11-20T09:16:28;21.10;;;19.43;;
11255;SDS011;5685;52.384;13.420;2022-11-20T09:19:33;22.00;;;20.33;;
11255;SDS011;5685;52.384;13.420;2022-11-20T09:22:38;21.13;;;19.70;;
11255;SDS011;5685;52.384;13.420;2022-11-20T09:25:42;21.27;;;19.87;;
11255;SDS011;5685;52.384;13.420;2022-11-20T09:28:44;21.17;;;19.77;;
11255;SDS011;5685;52.384;13.420;2022-11-20T09:31:47;21.07;;;19.77;;
11255;SDS011;5685;52.384;13.420;2022-11-20T09:34:51;21.67;;;20.17;;
11255;SDS011;5685;52.384;13.420;2022-11-20T09:37:54;21.80;;;20.30;;
11255;SDS011;5685;52.384;13.420;2022-11-20T09:40:57;21.20;;;19.90;;
11255;SDS011;5685;52.384;13.420;2022-11-20T09:44:04;21.73;;;20.33;;
11255;SDS011;5685;52.384;13.420;2022-11-20T09:47:14;20.77;;;19.47;;
11255;SDS011;5685;52.384;13.420;2022-11-20T09:50:25;21.40;;;20.10;;
11255;SDS011;5685;52.384;13.420;2022-11-20T09:53:35;21.07;;;19.77;;
11255;SDS011;5685;52.384;13.420;2022-11-20T09:56:44;21.90;;;20.40;;
11255;SDS011;5685;52.384;13.420;2022-11-20T09:59:49;22.10;;;20.50;;
11255;SDS011;5685;52.384;13.420;2022-11-20T10:02:55;20.77;;;19.47;;
11255;SDS011;5685;52.384;13.420;2022-11-20T10:06:01;22.83;;;20.63;;
11255;SDS011;5685;52.384;13.420;2022-11-20T10:09:08;21.47;;;20.07;;
11255;SDS011;5685;52.384;13.420;2022-11-20T10:12:22;22.13;;;20.70;;
11255;SDS011;5685;52.384;13.420;2022-11-20T10:15:31;21.93;;;20.53;;
11255;SDS011;5685;52.384;13.420;2022-11-20T10:18:44;20.63;;;19.30;;
11255;SDS011;5685;52.384;13.420;2022-11-20T10:22:01;21.40;;;20.00;;
11255;SDS011;5685;52.384;13.420;2022-11-20T10:25:11;21.23;;;19.73;;
11255;SDS011;5685;52.384;13.420;2022-11-20T10:28:19;21.27;;;19.87;;
11255;SDS011;5685;52.384;13.420;2022-11-20T10:31:30;21.20;;;19.70;;
11255;SDS011;5685;52.384;13.420;2022-11-20T10:34:38;21.20;;;19.87;;
11255;SDS011;5685;52.384;13.420;2022-11-20T10:37:50;21.87;;;20.37;;
11255;SDS011;5685;52.384;13.420;2022-11-20T10:40:56;20.83;;;19.53;;
11255;SDS011;5685;52.384;13.420;2022-11-20T10:44:21;21.30;;;19.97;;
11255;SDS011;5685;52.384;13.420;2022-11-20T10:47:45;21.63;;;20.23;;
11255;SDS011;5685;52.384;13.420;2022-11-20T10:50:55;22.07;;;20.47;;
11255;SDS011;5685;52.384;13.420;2022-11-20T10:54:10;21.83;;;20.43;;
11255;SDS011;5685;52.384;13.420;2022-11-20T10:57:21;21.77;;;20.17;;
11255;SDS011;5685;52.384;13.420;2022-11-20T11:00:31;21.37;;;20.07;;
11255;SDS011;5685;52.384;13.420;2022-11-20T11:03:33;21.27;;;19.90;;
11255;SDS011;5685;52.384;13.420;2022-11-20T11:06:36;21.40;;;20.00;;
11255;SDS011;5685;52.384;13.420;2022-11-20T11:09:44;20.67;;;19.37;;
11255;SDS011;5685;52.384;13.420;2022-11-20T11:12:50;21.60;;;20.20;;
11255;SDS011;5685;52.384;13.420;2022-11-20T11:15:53;21.07;;;19.57;;
11255;SDS011;5685;52.384;13.420;2022-11-20T11:19:03;21.13;;;19.83;;
11255;SDS011;5685;52.384;13.420;2022-11-20T11:22:06;21.43;;;20.10;;
11255;SDS011;5685;52.384;13.420;2022-11-20T11:25:23;21.23;;;19.83;;
11255;SDS011;5685;52.384;13.420;2022-11-20T11:28:27;21.20;;;19.83;;
11255;SDS011;5685;52.384;13.420;2022-11-20T11:31:31;21.87;;;20.27;;
11255;SDS011;5685;52.384;13.420;2022-11-20T11:34:34;21.93;;;20.53;;
11255;SDS011;5685;52.384;13.420;2022-11-20T11:37:37;21.40;;;19.93;;
11255;SDS011;5685;52.384;13.420;2022-11-20T11:40:42;21.57;;;20.17;;
11255;SDS011;5685;52.384;13.420;2022-11-20T11:43:49;21.40;;;20.03;;
11255;SDS011;5685;52.384;13.420;2022-11-20T11:47:11;21.03;;;19.73;;
11255;SDS011;5685;52.384;13.420;2022-11-20T11:50:22;21.53;;;20.13;;
11255;SDS011;5685;52.384;13.420;2022-11-20T11:53:26;21.23;;;19.63;;
11255;SDS011;5685;52.384;13.420;2022-11-20T11:56:31;20.87;;;19.50;;
11255;SDS011;5685;52.384;13.420;2022-11-20T11:59:39;20.63;;;19.33;;
11255;SDS011;5685;52.384;13.420;2022-11-20T12:02:54;20.70;;;19.40;;
11255;SDS011;5685;52.384;13.420;2022-11-20T12:06:03;21.07;;;19.67;;
11255;SDS011;5685;52.384;13.420;2022-11-20T12:09:09;20.80;;;19.50;;
11255;SDS011;5685;52.384;13.420;2022-11-20T12:12:15;21.57;;;20.07;;
11255;SDS011;5685;52.384;13.420;2022-11-20T12:15:29;20.53;;;19.13;;
11255;SDS011;5685;52.384;13.420;2022-11-20T12:18:33;21.33;;;19.93;;
11255;SDS011;5685;52.384;13.420;2022-11-20T12:21:38;20.27;;;19.03;;
11255;SDS011;5685;52.384;13.420;2022-11-20T12:24:51;22.57;;;21.03;;
11255;SDS011;5685;52.384;13.420;2022-11-20T12:28:01;22.03;;;20.60;;
11255;SDS011;5685;52.384;13.420;2022-11-20T12:31:18;20.80;;;19.50;;
11255;SDS011;5685;52.384;13.420;2022-11-20T12:34:40;20.53;;;19.27;;
11255;SDS011;5685;52.384;13.420;2022-11-20T12:37:51;21.50;;;20.07;;
11255;SDS011;5685;52.384;13.420;2022-11-20T12:41:00;20.63;;;19.33;;
11255;SDS011;5685;52.384;13.420;2022-11-20T12:44:08;21.07;;;19.67;;
11255;SDS011;5685;52.384;13.420;2022-11-20T12:47:37;21.33;;;19.93;;
11255;SDS011;5685;52.384;13.420;2022-11-20T12:50:51;20.07;;;18.77;;
11255;SDS011;5685;52.384;13.420;2022-11-20T12:54:25;19.80;;;18.50;;
11255;SDS011;5685;52.384;13.420;2022-11-20T12:57:49;19.67;;;18.47;;
11255;SDS011;5685;52.384;13.420;2022-11-20T13:00:58;19.57;;;18.37;;
11255;SDS011;5685;52.384;13.420;2022-11-20T13:04:07;19.70;;;18.53;;
11255;SDS011;5685;52.384;13.420;2022-11-20T13:07:17;19.70;;;18.57;;
11255;SDS011;5685;52.384;13.420;2022-11-20T13:10:34;19.80;;;18.60;;
11255;SDS011;5685;52.384;13.420;2022-11-20T13:13:43;19.90;;;18.60;;
11255;SDS011;5685;52.384;13.420;2022-11-20T13:16:56;19.60;;;18.40;;
11255;SDS011;5685;52.384;13.420;2022-11-20T13:20:01;19.80;;;18.60;;
11255;SDS011;5685;52.384;13.420;2022-11-20T13:23:05;19.80;;;18.60;;
11255;SDS011;5685;52.384;13.420;2022-11-20T13:26:15;19.97;;;18.67;;
11255;SDS011;5685;52.384;13.420;2022-11-20T13:29:19;19.10;;;18.00;;
11255;SDS011;5685;52.384;13.420;2022-11-20T13:32:23;24.73;;;23.23;;
11255;SDS011;5685;52.384;13.420;2022-11-20T13:35:26;25.33;;;23.63;;
11255;SDS011;5685;52.384;13.420;2022-11-20T13:38:40;24.93;;;23.33;;
11255;SDS011;5685;52.384;13.420;2022-11-20T13:41:53;24.83;;;23.23;;
11255;SDS011;5685;52.384;13.420;2022-11-20T13:45:00;24.73;;;23.17;;
11255;SDS011;5685;52.384;13.420;2022-11-20T13:48:19;25.13;;;23.47;;
11255;SDS011;5685;52.384;13.420;2022-11-20T13:51:27;24.67;;;23.17;;
11255;SDS011;5685;52.384;13.420;2022-11-20T13:54:44;25.43;;;23.63;;
11255;SDS011;5685;52.384;13.420;2022-11-20T13:58:02;25.20;;;23.60;;
11255;SDS011;5685;52.384;13.420;2022-11-20T14:01:23;25.23;;;23.63;;
11255;SDS011;5685;52.384;13.420;2022-11-20T14:04:29;25.10;;;23.50;;
11255;SDS011;5685;52.384;13.420;2022-11-20T14:07:34;24.90;;;23.40;;
11255;SDS011;5685;52.384;13.420;2022-11-20T14:10:38;25.53;;;23.83;;
11255;SDS011;5685;52.384;13.420;2022-11-20T14:13:50;25.47;;;23.77;;
11255;SDS011;5685;52.384;13.420;2022-11-20T14:17:07;25.33;;;23.63;;
11255;SDS011;5685;52.384;13.420;2022-11-20T14:20:12;25.73;;;23.97;;
11255;SDS011;5685;52.384;13.420;2022-11-20T14:23:23;25.13;;;23.33;;
11255;SDS011;5685;52.384;13.420;2022-11-20T14:26:27;26.30;;;24.40;;
11255;SDS011;5685;52.384;13.420;2022-11-20T14:29:33;25.27;;;23.50;;
11255;SDS011;5685;52.384;13.420;2022-11-20T14:32:37;24.77;;;23.23;;
11255;SDS011;5685;52.384;13.420;2022-11-20T14:35:44;25.40;;;23.70;;
11255;SDS011;5685;52.384;13.420;2022-11-20T14:38:47;25.17;;;23.47;;
11255;SDS011;5685;52.384;13.420;2022-11-20T14:41:50;25.30;;;23.53;;
11255;SDS011;5685;52.384;13.420;2022-11-20T14:44:54;25.50;;;23.50;;
11255;SDS011;5685;52.384;13.420;2022-11-20T14:47:58;25.67;;;23.47;;
11255;SDS011;5685;52.384;13.420;2022-11-20T14:51:03;25.93;;;24.23;;
11255;SDS011;5685;52.384;13.420;2022-11-20T14:54:09;25.20;;;23.60;;
11255;SDS011;5685;52.384;13.420;2022-11-20T14:57:23;25.70;;;24.00;;
11255;SDS011;5685;52.384;13.420;2022-11-20T15:00:28;26.13;;;24.17;;
11255;SDS011;5685;52.384;13.420;2022-11-20T15:03:31;25.57;;;23.97;;
11255;SDS011;5685;52.384;13.420;2022-11-20T15:06:35;25.60;;;23.90;;
11255;SDS011;5685;52.384;13.420;2022-11-20T15:09:38;25.87;;;24.17;;
11255;SDS011;5685;52.384;13.420;2022-11-20T15:12:46;25.20;;;23.60;;
11255;SDS011;5685;52.384;13.420;2022-11-20T15:15:50;25.57;;;23.77;;
11255;SDS011;5685;52.384;13.420;2022-11-20T15:18:54;25.40;;;23.73;;
11255;SDS011;5685;52.384;13.420;2022-11-20T15:21:58;25.53;;;23.77;;
11255;SDS011;5685;52.384;13.420;2022-11-20T15:25:01;24.73;;;23.03;;
11255;SDS011;5685;52.384;13.420;2022-11-20T15:28:09;26.63;;;24.70;;
11255;SDS011;5685;52.384;13.420;2022-11-20T15:31:14;25.07;;;23.47;;
11255;SDS011;5685;52.384;13.420;2022-11-20T15:34:17;25.77;;;23.93;;
11255;SDS011;5685;52.384;13.420;2022-11-20T15:37:21;25.40;;;23.80;;
11255;SDS011;5685;52.384;13.420;2022-11-20T15:40:24;25.73;;;24.03;;
11255;SDS011;5685;52.384;13.420;2022-11-20T15:43:27;26.70;;;24.30;;
11255;SDS011;5685;52.384;13.420;2022-11-20T15:46:30;25.40;;;23.70;;
11255;SDS011;5685;52.384;13.420;2022-11-20T15:49:38;25.47;;;23.87;;
11255;SDS011;5685;52.384;13.420;2022-11-20T15:52:42;25.70;;;23.93;;
11255;SDS011;5685;52.384;13.420;2022-11-20T15:55:45;25.40;;;23.70;;
11255;SDS011;5685;52.384;13.420;2022-11-20T15:58:47;27.10;;;25.20;;
11255;SDS011;5685;52.384;13.420;2022-11-20T16:01:50;25.70;;;24.00;;
11255;SDS011;5685;52.384;13.420;2022-11-20T16:04:53;25.43;;;23.83;;
11255;SDS011;5685;52.384;13.420;2022-11-20T16:07:57;26.43;;;24.73;;
11255;SDS011;5685;52.384;13.420;2022-11-20T16:10:59;26.23;;;24.37;;
11255;SDS011;5685;52.384;13.420;2022-11-20T16:14:02;26.67;;;24.87;;
11255;SDS011;5685;52.384;13.420;2022-11-20T16:17:23;25.73;;;23.93;;
11255;SDS011;5685;52.384;13.420;2022-11-20T16:20:42;25.13;;;23.53;;
11255;SDS011;5685;52.384;13.420;2022-11-20T16:23:47;25.23;;;23.53;;
11255;SDS011;5685;52.384;13.420;2022-11-20T16:26:50;25.00;;;23.40;;
11255;SDS011;5685;52.384;13.420;2022-11-20T16:29:54;25.43;;;23.83;;
11255;SDS011;5685;52.384;13.420;2022-11-20T16:32:56;25.80;;;24.00;;
11255;SDS011;5685;52.384;13.420;2022-11-20T16:36:05;25.90;;;24.20;;
11255;SDS011;5685;52.384;13.420;2022-11-20T16:39:11;25.00;;;23.50;;
11255;SDS011;5685;52.384;13.420;2022-11-20T16:42:14;25.47;;;23.87;;
11255;SDS011;5685;52.384;13.420;2022-11-20T16:45:17;25.50;;;23.90;;
11255;SDS011;5685;52.384;13.420;2022-11-20T16:48:20;25.83;;;24.13;;
11255;SDS011;5685;52.384;13.420;2022-11-20T16:51:23;24.77;;;23.23;;
11255;SDS011;5685;52.384;13.420;2022-11-20T16:54:28;25.33;;;23.73;;
11255;SDS011;5685;52.384;13.420;2022-11-20T16:57:31;25.80;;;23.97;;
11255;SDS011;5685;52.384;13.420;2022-11-20T17:00:35;25.73;;;23.93;;
11255;SDS011;5685;52.384;13.420;2022-11-20T17:03:38;25.37;;;23.70;;
11255;SDS011;5685;52.384;13.420;2022-11-20T17:06:42;25.67;;;23.87;;
11255;SDS011;5685;52.384;13.420;2022-11-20T17:09:46;25.60;;;23.70;;
11255;SDS011;5685;52.384;13.420;2022-11-20T17:12:49;25.50;;;23.80;;
11255;SDS011;5685;52.384;13.420;2022-11-20T17:15:52;25.83;;;24.20;;
11255;SDS011;5685;52.384;13.420;2022-11-20T17:18:55;25.37;;;23.77;;
11255;SDS011;5685;52.384;13.420;2022-11-20T17:21:58;25.20;;;23.60;;
11255;SDS011;5685;52.384;13.420;2022-11-20T17:25:02;25.47;;;23.80;;
11255;SDS011;5685;52.384;13.420;2022-11-20T17:28:05;25.90;;;24.20;;
11255;SDS011;5685;52.384;13.420;2022-11-20T17:31:09;25.53;;;23.83;;
11255;SDS011;5685;52.384;13.420;2022-11-20T17:34:13;25.83;;;24.13;;
11255;SDS011;5685;52.384;13.420;2022-11-20T17:37:16;25.47;;;23.80;;
11255;SDS011;5685;52.384;13.420;2022-11-20T17:40:20;25.27;;;23.67;;
11255;SDS011;5685;52.384;13.420;2022-11-20T17:43:23;25.90;;;24.20;;
11255;SDS011;5685;52.384;13.420;2022-11-20T17:46:26;25.87;;;24.17;;
11255;SDS011;5685;52.384;13.420;2022-11-20T17:49:32;25.20;;;23.60;;
11255;SDS011;5685;52.384;13.420;2022-11-20T17:52:34;25.37;;;23.77;;
11255;SDS011;5685;52.384;13.420;2022-11-20T17:55:39;25.30;;;23.60;;
11255;SDS011;5685;52.384;13.420;2022-11-20T17:58:59;25.67;;;23.97;;
11255;SDS011;5685;52.384;13.420;2022-11-20T18:02:04;25.50;;;23.83;;
11255;SDS011;5685;52.384;13.420;2022-11-20T18:05:07;25.93;;;24.23;;